createdAt,value
2017-08-07T00:01:14.527Z,74.30
2017-08-07T00:03:42.079Z,74.30
2017-08-07T00:06:09.671Z,74.30
2017-08-07T00:08:37.207Z,74.20
2017-08-07T00:11:04.748Z,74.40
2017-08-07T00:13:32.341Z,74.40
2017-08-07T00:15:59.900Z,74.50
2017-08-07T00:18:27.446Z,74.10
2017-08-07T00:20:55.037Z,74.00
2017-08-07T00:23:22.596Z,74.00
2017-08-07T00:25:50.159Z,74.50
2017-08-07T00:28:17.730Z,74.60
2017-08-07T00:30:45.293Z,74.50
2017-08-07T00:33:12.856Z,74.40
2017-08-07T00:35:40.428Z,74.50
2017-08-07T00:38:07.985Z,74.50
2017-08-07T00:40:36.309Z,75.40
2017-08-07T00:43:03.894Z,74.60
2017-08-07T00:45:31.439Z,74.70
2017-08-07T00:47:58.986Z,74.60
2017-08-07T00:50:26.563Z,74.70
2017-08-07T00:52:54.093Z,74.60
2017-08-07T00:55:21.657Z,75.00
2017-08-07T00:57:49.234Z,74.90
2017-08-07T01:00:16.779Z,74.60
2017-08-07T01:02:44.346Z,74.40
2017-08-07T01:05:11.930Z,74.40
2017-08-07T01:07:39.470Z,75.00
2017-08-07T01:10:07.010Z,74.40
2017-08-07T01:12:34.607Z,74.60
2017-08-07T01:15:02.175Z,74.90
2017-08-07T01:17:29.713Z,74.70
2017-08-07T01:19:57.550Z,75.00
2017-08-07T01:22:25.121Z,75.00
2017-08-07T01:24:52.676Z,75.10
2017-08-07T01:27:20.273Z,75.00
2017-08-07T01:29:47.820Z,75.40
2017-08-07T01:32:16.153Z,75.30
2017-08-07T01:34:43.749Z,75.30
2017-08-07T01:37:11.317Z,75.20
2017-08-07T01:39:38.877Z,75.30
2017-08-07T01:42:06.463Z,75.00
2017-08-07T01:44:34.001Z,75.20
2017-08-07T01:47:01.561Z,75.20
2017-08-07T01:49:29.154Z,75.00
2017-08-07T01:51:56.712Z,75.00
2017-08-07T01:54:24.299Z,74.90
2017-08-07T01:56:52.070Z,75.00
2017-08-07T01:59:19.622Z,75.40
2017-08-07T02:01:47.189Z,75.20
2017-08-07T02:04:14.792Z,75.20
2017-08-07T02:06:42.339Z,75.30
2017-08-07T02:09:09.892Z,75.40
2017-08-07T02:11:37.498Z,75.60
2017-08-07T02:14:05.045Z,75.60
2017-08-07T02:16:33.358Z,75.70
2017-08-07T02:19:00.930Z,75.70
2017-08-07T02:21:28.470Z,75.40
2017-08-07T02:23:56.028Z,75.50
2017-08-07T02:26:23.616Z,75.90
2017-08-07T02:28:51.162Z,76.10
2017-08-07T02:31:18.716Z,76.20
2017-08-07T02:33:46.295Z,76.40
2017-08-07T02:36:13.839Z,76.40
2017-08-07T02:38:41.392Z,76.40
2017-08-07T02:41:08.957Z,76.50
2017-08-07T02:43:36.522Z,76.70
2017-08-07T02:46:04.143Z,76.70
2017-08-07T02:48:31.701Z,76.70
2017-08-07T02:50:59.262Z,76.70
2017-08-07T02:53:26.837Z,76.40
2017-08-07T02:55:54.392Z,76.80
2017-08-07T02:58:21.953Z,77.00
2017-08-07T03:00:49.494Z,76.90
2017-08-07T03:03:17.026Z,77.00
2017-08-07T03:05:44.608Z,77.00
2017-08-07T03:08:12.164Z,77.00
2017-08-07T03:10:39.737Z,76.70
2017-08-07T03:13:07.297Z,77.00
2017-08-07T03:15:34.847Z,77.00
2017-08-07T03:18:02.419Z,77.10
2017-08-07T03:20:29.975Z,77.20
2017-08-07T03:22:57.548Z,77.30
2017-08-07T03:25:25.090Z,77.10
2017-08-07T03:27:52.692Z,77.20
2017-08-07T03:30:20.269Z,77.40
2017-08-07T03:32:47.822Z,77.40
2017-08-07T03:35:15.802Z,77.50
2017-08-07T03:37:43.373Z,77.30
2017-08-07T03:40:11.696Z,77.60
2017-08-07T03:42:39.276Z,77.40
2017-08-07T03:45:06.837Z,77.30
2017-08-07T03:47:34.428Z,77.50
2017-08-07T03:50:01.982Z,77.50
2017-08-07T03:52:29.522Z,77.60
2017-08-07T03:54:57.086Z,78.30
2017-08-07T03:57:24.669Z,77.40
2017-08-07T03:59:52.256Z,77.30
2017-08-07T04:02:20.595Z,77.50
2017-08-07T04:04:48.149Z,77.50
2017-08-07T04:07:15.725Z,77.30
2017-08-07T04:09:43.287Z,77.30
2017-08-07T04:12:10.864Z,77.30
2017-08-07T04:14:38.428Z,78.10
2017-08-07T04:17:05.977Z,78.10
2017-08-07T04:19:33.534Z,78.10
2017-08-07T04:22:01.071Z,77.70
2017-08-07T04:24:28.651Z,77.60
2017-08-07T04:26:56.210Z,77.60
2017-08-07T04:29:23.745Z,77.70
2017-08-07T04:31:51.307Z,78.00
2017-08-07T04:34:18.870Z,77.70
2017-08-07T04:36:46.439Z,77.30
2017-08-07T04:39:14.001Z,76.80
2017-08-07T04:41:41.576Z,76.50
2017-08-07T04:44:09.134Z,76.40
2017-08-07T04:46:36.697Z,76.10
2017-08-07T04:49:04.266Z,75.80
2017-08-07T04:51:31.801Z,75.60
2017-08-07T04:53:59.344Z,75.00
2017-08-07T04:56:26.912Z,74.80
2017-08-07T04:58:54.460Z,74.50
2017-08-07T05:01:22.038Z,74.20
2017-08-07T05:03:49.758Z,73.40
2017-08-07T05:06:17.309Z,73.10
2017-08-07T05:08:44.889Z,72.30
2017-08-07T05:11:12.436Z,71.40
2017-08-07T05:13:40.002Z,70.80
2017-08-07T05:16:07.554Z,69.80
2017-08-07T05:18:35.110Z,70.00
2017-08-07T05:21:02.669Z,69.20
2017-08-07T05:23:30.220Z,69.10
2017-08-07T05:25:57.808Z,69.10
2017-08-07T05:28:25.360Z,69.40
2017-08-07T05:30:52.907Z,69.50
2017-08-07T05:33:20.466Z,69.30
2017-08-07T05:35:48.021Z,68.80
2017-08-07T05:38:15.592Z,68.80
2017-08-07T05:40:43.136Z,68.70
2017-08-07T05:43:10.721Z,68.20
2017-08-07T05:45:38.261Z,68.50
2017-08-07T05:48:05.820Z,68.70
2017-08-07T05:50:33.390Z,68.20
2017-08-07T05:53:00.949Z,68.30
2017-08-07T05:55:28.523Z,67.70
2017-08-07T05:57:56.064Z,67.40
2017-08-07T06:00:23.618Z,66.60
2017-08-07T06:02:51.960Z,66.60
2017-08-07T06:05:19.524Z,66.60
2017-08-07T06:07:47.126Z,66.90
2017-08-07T06:10:14.694Z,64.50
2017-08-07T06:12:42.231Z,64.10
2017-08-07T06:15:09.794Z,63.60
2017-08-07T06:17:37.342Z,63.20
2017-08-07T06:20:04.949Z,63.20
2017-08-07T06:22:32.490Z,61.80
2017-08-07T06:25:00.799Z,61.40
2017-08-07T06:27:28.383Z,61.40
2017-08-07T06:29:55.949Z,60.80
2017-08-07T06:32:23.529Z,60.30
2017-08-07T06:34:51.078Z,60.60
2017-08-07T06:37:18.618Z,59.70
2017-08-07T06:39:46.462Z,60.20
2017-08-07T06:42:14.585Z,60.20
2017-08-07T06:44:42.460Z,59.40
2017-08-07T06:47:10.006Z,58.90
2017-08-07T06:49:37.534Z,58.50
2017-08-07T06:52:05.090Z,58.80
2017-08-07T06:54:32.629Z,59.00
2017-08-07T06:57:00.981Z,58.90
2017-08-07T06:59:28.522Z,58.70
2017-08-07T07:01:56.080Z,54.50
2017-08-07T07:04:23.641Z,55.00
2017-08-07T07:06:51.218Z,56.40
2017-08-07T07:09:18.811Z,55.10
2017-08-07T07:11:46.394Z,54.20
2017-08-07T07:17:07.996Z,53.30
2017-08-07T07:19:35.545Z,53.30
2017-08-07T07:22:03.189Z,51.70
2017-08-07T07:24:30.792Z,49.90
2017-08-07T07:26:58.339Z,50.20
2017-08-07T07:29:25.924Z,50.60
2017-08-07T07:31:53.471Z,49.80
2017-08-07T07:34:21.056Z,49.90
2017-08-07T07:36:48.614Z,50.40
2017-08-07T07:39:16.209Z,49.80
2017-08-07T07:41:43.768Z,49.90
2017-08-07T07:44:11.325Z,50.20
2017-08-07T07:46:38.895Z,49.40
2017-08-07T07:49:06.454Z,50.60
2017-08-07T07:51:34.014Z,49.90
2017-08-07T07:54:01.593Z,49.90
2017-08-07T07:56:29.139Z,49.30
2017-08-07T07:58:56.718Z,49.40
2017-08-07T08:01:24.281Z,49.90
2017-08-07T08:03:51.832Z,48.70
2017-08-07T08:06:19.408Z,48.40
2017-08-07T08:08:46.979Z,48.40
2017-08-07T08:11:14.558Z,49.30
2017-08-07T08:13:42.115Z,47.60
2017-08-07T08:16:09.663Z,47.80
2017-08-07T08:18:37.235Z,48.00
2017-08-07T08:21:04.768Z,48.10
2017-08-07T08:23:32.351Z,48.50
2017-08-07T08:25:59.913Z,47.80
2017-08-07T08:28:27.450Z,46.40
2017-08-07T08:30:55.008Z,47.30
2017-08-07T08:33:22.560Z,47.90
2017-08-07T08:35:50.894Z,46.00
2017-08-07T08:38:18.494Z,46.00
2017-08-07T08:40:46.790Z,47.20
2017-08-07T08:43:14.361Z,47.20
2017-08-07T08:45:41.922Z,47.10
2017-08-07T08:48:09.484Z,47.50
2017-08-07T08:50:37.027Z,47.60
2017-08-07T08:53:05.331Z,45.30
2017-08-07T08:55:32.892Z,45.30
2017-08-07T08:58:00.422Z,45.30
2017-08-07T09:00:28.768Z,45.00
2017-08-07T09:02:56.353Z,45.00
2017-08-07T09:05:24.674Z,43.60
2017-08-07T09:07:52.234Z,42.70
2017-08-07T09:10:19.787Z,43.00
2017-08-07T09:12:47.369Z,42.20
2017-08-07T09:15:14.904Z,43.20
2017-08-07T09:17:42.456Z,42.60
2017-08-07T09:20:10.781Z,42.50
2017-08-07T09:22:38.341Z,42.50
2017-08-07T09:25:05.901Z,42.10
2017-08-07T09:27:33.430Z,41.90
2017-08-07T09:30:00.993Z,39.70
2017-08-07T09:32:28.550Z,39.60
2017-08-07T09:34:56.858Z,40.30
2017-08-07T09:37:24.454Z,40.20
2017-08-07T09:39:52.014Z,40.10
2017-08-07T09:42:19.561Z,40.00
2017-08-07T09:44:47.123Z,39.20
2017-08-07T09:47:14.658Z,39.50
2017-08-07T09:49:42.252Z,38.70
2017-08-07T09:52:09.782Z,40.30
2017-08-07T09:54:37.325Z,39.20
2017-08-07T09:57:05.651Z,39.90
2017-08-07T09:59:33.188Z,39.80
2017-08-07T10:02:01.735Z,39.20
2017-08-07T10:04:30.048Z,39.70
2017-08-07T10:06:57.588Z,39.70
2017-08-07T10:09:25.929Z,38.80
2017-08-07T10:11:53.482Z,38.80
2017-08-07T10:14:21.057Z,40.30
2017-08-07T10:16:48.627Z,39.10
2017-08-07T10:19:16.975Z,39.20
2017-08-07T10:21:44.535Z,39.00
2017-08-07T10:24:12.124Z,36.80
2017-08-07T10:26:40.483Z,39.00
2017-08-07T10:29:08.031Z,39.00
2017-08-07T10:31:35.572Z,37.50
2017-08-07T10:34:03.146Z,37.50
2017-08-07T10:36:30.703Z,37.20
2017-08-07T10:38:58.292Z,40.00
2017-08-07T10:41:25.841Z,36.50
2017-08-07T10:43:53.669Z,36.80
2017-08-07T10:46:21.265Z,38.30
2017-08-07T10:48:48.830Z,36.80
2017-08-07T10:51:16.416Z,37.30
2017-08-07T10:53:43.988Z,35.80
2017-08-07T10:56:11.530Z,36.00
2017-08-07T10:58:39.086Z,37.00
2017-08-07T11:01:08.510Z,38.60
2017-08-07T11:03:36.099Z,38.00
2017-08-07T11:06:03.664Z,39.00
2017-08-07T11:08:31.244Z,38.30
2017-08-07T11:10:59.576Z,37.40
2017-08-07T11:13:27.140Z,37.40
2017-08-07T11:15:54.708Z,37.10
2017-08-07T11:18:22.260Z,37.90
2017-08-07T11:20:49.882Z,37.20
2017-08-07T11:23:17.485Z,39.30
2017-08-07T11:25:45.033Z,37.30
2017-08-07T11:28:12.624Z,36.20
2017-08-07T11:30:40.177Z,35.40
2017-08-07T11:33:07.753Z,36.00
2017-08-07T11:35:35.310Z,37.70
2017-08-07T11:38:02.842Z,34.50
2017-08-07T11:40:30.460Z,33.80
2017-08-07T11:42:58.413Z,35.40
2017-08-07T11:45:27.345Z,35.40
2017-08-07T11:47:54.912Z,35.40
2017-08-07T11:50:22.463Z,33.70
2017-08-07T11:52:50.062Z,33.70
2017-08-07T11:55:17.613Z,33.30
2017-08-07T11:57:45.164Z,34.40
2017-08-07T12:00:12.735Z,34.80
2017-08-07T12:02:40.361Z,33.60
2017-08-07T12:05:10.886Z,37.50
2017-08-07T12:07:39.249Z,34.60
2017-08-07T12:10:06.838Z,34.60
2017-08-07T12:12:35.181Z,35.70
2017-08-07T12:15:02.728Z,35.70
2017-08-07T12:17:30.321Z,33.30
2017-08-07T12:19:57.874Z,34.90
2017-08-07T12:22:25.500Z,34.50
2017-08-07T12:24:53.070Z,34.20
2017-08-07T12:27:20.617Z,34.20
2017-08-07T12:29:48.213Z,34.30
2017-08-07T12:32:15.780Z,34.40
2017-08-07T12:34:43.336Z,35.60
2017-08-07T12:37:11.022Z,35.80
2017-08-07T12:39:38.566Z,36.90
2017-08-07T12:42:06.126Z,34.20
2017-08-07T12:44:33.666Z,33.80
2017-08-07T12:47:01.206Z,35.80
2017-08-07T12:49:28.762Z,33.60
2017-08-07T12:51:56.322Z,34.50
2017-08-07T12:54:23.939Z,34.20
2017-08-07T12:56:51.603Z,36.00
2017-08-07T12:59:19.169Z,36.10
2017-08-07T13:01:46.755Z,34.70
2017-08-07T13:04:15.079Z,35.60
2017-08-07T13:06:42.665Z,34.70
2017-08-07T13:09:10.205Z,35.30
2017-08-07T13:11:37.761Z,33.70
2017-08-07T13:14:05.337Z,34.20
2017-08-07T13:16:32.888Z,33.10
2017-08-07T13:19:00.453Z,34.30
2017-08-07T13:21:28.000Z,33.50
2017-08-07T13:23:55.539Z,34.20
2017-08-07T13:26:23.855Z,32.70
2017-08-07T13:28:51.406Z,32.70
2017-08-07T13:31:18.970Z,32.70
2017-08-07T13:33:46.518Z,32.10
2017-08-07T13:36:14.064Z,33.00
2017-08-07T13:38:42.405Z,32.60
2017-08-07T13:41:09.938Z,32.60
2017-08-07T13:43:37.506Z,31.30
2017-08-07T13:46:05.069Z,33.60
2017-08-07T13:48:32.620Z,32.60
2017-08-07T13:51:00.192Z,34.60
2017-08-07T13:53:27.744Z,31.90
2017-08-07T13:55:55.316Z,32.90
2017-08-07T13:58:22.862Z,31.90
2017-08-07T14:00:50.401Z,32.50
2017-08-07T14:03:18.742Z,32.40
2017-08-07T14:05:46.292Z,32.40
2017-08-07T14:08:13.859Z,31.80
2017-08-07T14:10:41.412Z,33.00
2017-08-07T14:13:08.944Z,33.20
2017-08-07T14:15:36.510Z,33.20
2017-08-07T14:18:04.091Z,32.70
2017-08-07T14:20:31.680Z,33.90
2017-08-07T14:22:59.239Z,33.40
2017-08-07T14:25:26.891Z,33.90
2017-08-07T14:30:49.876Z,31.50
2017-08-07T14:33:17.490Z,33.10
2017-08-07T14:35:45.051Z,34.00
2017-08-07T14:38:12.606Z,34.20
2017-08-07T14:40:41.025Z,32.70
2017-08-07T14:43:08.577Z,32.70
2017-08-07T14:45:36.164Z,32.40
2017-08-07T14:48:03.714Z,31.90
2017-08-07T14:50:31.272Z,32.90
2017-08-07T14:52:58.849Z,34.20
2017-08-07T14:55:26.384Z,32.40
2017-08-07T14:57:53.951Z,32.20
2017-08-07T15:00:21.497Z,33.00
2017-08-07T15:02:49.040Z,33.50
2017-08-07T15:05:17.400Z,33.30
2017-08-07T15:07:44.943Z,33.20
2017-08-07T15:10:12.517Z,33.10
2017-08-07T15:12:40.052Z,32.40
2017-08-07T15:15:07.588Z,32.90
2017-08-07T15:17:35.172Z,34.30
2017-08-07T15:20:02.720Z,34.20
2017-08-07T15:22:30.334Z,35.00
2017-08-07T15:24:59.965Z,35.50
2017-08-07T15:27:28.747Z,33.50
2017-08-07T15:29:56.320Z,33.50
2017-08-07T15:32:23.868Z,34.30
2017-08-07T15:34:51.459Z,33.40
2017-08-07T15:37:18.999Z,33.30
2017-08-07T15:39:47.326Z,33.90
2017-08-07T15:42:14.901Z,33.80
2017-08-07T15:44:42.453Z,33.50
2017-08-07T15:47:10.041Z,33.50
2017-08-07T15:49:37.598Z,34.10
2017-08-07T15:52:05.149Z,34.10
2017-08-07T15:54:32.710Z,35.20
2017-08-07T15:57:00.266Z,34.30
2017-08-07T15:59:27.850Z,35.30
2017-08-07T16:01:55.394Z,35.70
2017-08-07T16:04:22.930Z,36.50
2017-08-07T16:06:50.483Z,36.80
2017-08-07T16:09:26.066Z,37.30
2017-08-07T16:11:53.982Z,38.90
2017-08-07T16:14:21.564Z,37.90
2017-08-07T16:16:49.126Z,38.00
2017-08-07T16:19:16.681Z,39.50
2017-08-07T16:21:44.981Z,38.50
2017-08-07T16:24:12.553Z,38.50
2017-08-07T16:26:40.104Z,38.30
2017-08-07T16:29:07.638Z,37.80
2017-08-07T16:31:35.961Z,38.10
2017-08-07T16:34:03.492Z,38.00
2017-08-07T16:36:31.062Z,37.80
2017-08-07T16:38:58.599Z,38.10
2017-08-07T16:41:26.917Z,38.20
2017-08-07T16:43:54.487Z,38.50
2017-08-07T16:46:22.128Z,38.10
2017-08-07T16:48:49.698Z,38.90
2017-08-07T16:51:17.236Z,38.10
2017-08-07T16:53:44.807Z,39.20
2017-08-07T16:56:12.365Z,39.80
2017-08-07T16:58:39.912Z,39.50
2017-08-07T17:01:08.262Z,41.30
2017-08-07T17:03:35.809Z,41.30
2017-08-07T17:06:03.390Z,41.20
2017-08-07T17:08:30.948Z,41.50
2017-08-07T17:10:58.513Z,41.00
2017-08-07T17:13:26.059Z,41.80
2017-08-07T17:15:53.613Z,42.40
2017-08-07T17:18:21.162Z,43.10
2017-08-07T17:20:48.708Z,41.50
2017-08-07T17:23:16.291Z,41.50
2017-08-07T17:25:43.842Z,41.80
2017-08-07T17:28:11.380Z,43.00
2017-08-07T17:30:39.725Z,42.60
2017-08-07T17:33:07.293Z,42.50
2017-08-07T17:35:34.863Z,41.90
2017-08-07T17:38:02.407Z,42.10
2017-08-07T17:40:29.960Z,42.60
2017-08-07T17:42:57.523Z,41.70
2017-08-07T17:45:25.064Z,40.20
2017-08-07T17:47:52.653Z,41.80
2017-08-07T17:50:20.188Z,42.10
2017-08-07T17:52:47.727Z,42.70
2017-08-07T17:55:15.306Z,42.20
2017-08-07T17:57:42.871Z,42.80
2017-08-07T18:00:10.435Z,42.30
2017-08-07T18:02:37.990Z,42.60
2017-08-07T18:05:06.168Z,43.50
2017-08-07T18:07:33.748Z,44.20
2017-08-07T18:10:01.286Z,44.20
2017-08-07T18:12:28.875Z,44.80
2017-08-07T18:14:56.533Z,45.00
2017-08-07T18:17:24.088Z,45.50
2017-08-07T18:19:51.665Z,45.20
2017-08-07T18:22:22.882Z,45.90
2017-08-07T18:24:50.473Z,46.80
2017-08-07T18:27:18.023Z,47.20
2017-08-07T18:29:45.579Z,47.50
2017-08-07T18:32:13.136Z,48.00
2017-08-07T18:34:40.707Z,47.40
2017-08-07T18:37:08.272Z,47.30
2017-08-07T18:39:35.802Z,48.40
2017-08-07T18:42:03.347Z,47.70
2017-08-07T18:44:31.696Z,48.90
2017-08-07T18:46:59.241Z,48.90
2017-08-07T18:49:26.827Z,49.30
2017-08-07T18:51:56.174Z,50.00
2017-08-07T18:54:23.760Z,50.40
2017-08-07T18:56:56.000Z,50.20
2017-08-07T18:59:24.324Z,50.70
2017-08-07T19:01:51.912Z,50.60
2017-08-07T19:04:20.210Z,51.60
2017-08-07T19:06:48.537Z,53.50
2017-08-07T19:09:16.109Z,53.10
2017-08-07T19:11:43.657Z,53.00
2017-08-07T19:14:11.226Z,53.10
2017-08-07T19:16:38.777Z,52.90
2017-08-07T19:19:06.319Z,53.30
2017-08-07T19:21:33.889Z,52.80
2017-08-07T19:24:01.427Z,53.50
2017-08-07T19:26:29.003Z,54.00
2017-08-07T19:28:56.554Z,54.30
2017-08-07T19:31:24.888Z,54.70
2017-08-07T19:33:52.459Z,54.70
2017-08-07T19:36:20.014Z,54.90
2017-08-07T19:38:47.611Z,55.10
2017-08-07T19:41:15.950Z,55.90
2017-08-07T19:43:43.521Z,55.70
2017-08-07T19:46:11.097Z,56.20
2017-08-07T19:48:38.656Z,56.30
2017-08-07T19:51:06.245Z,56.30
2017-08-07T19:53:34.634Z,57.10
2017-08-07T19:56:03.020Z,57.40
2017-08-07T19:58:30.601Z,57.40
2017-08-07T20:00:58.204Z,57.90
2017-08-07T20:03:26.107Z,58.00
2017-08-07T20:05:53.857Z,58.10
2017-08-07T20:08:21.574Z,58.60
2017-08-07T20:10:49.134Z,59.00
2017-08-07T20:13:20.374Z,58.50
2017-08-07T20:15:48.147Z,58.80
2017-08-07T20:18:25.512Z,58.80
2017-08-07T20:20:53.127Z,59.40
2017-08-07T20:23:20.678Z,60.00
2017-08-07T20:25:48.258Z,59.20
2017-08-07T20:28:15.839Z,59.40
2017-08-07T20:30:43.385Z,59.30
2017-08-07T20:33:10.964Z,59.20
2017-08-07T20:35:39.312Z,59.00
2017-08-07T20:38:06.881Z,58.90
2017-08-07T20:40:34.474Z,59.80
2017-08-07T20:43:02.792Z,59.20
2017-08-07T20:45:30.814Z,59.20
2017-08-07T20:47:58.409Z,58.10
2017-08-07T20:50:25.967Z,59.40
2017-08-07T20:52:53.536Z,59.40
2017-08-07T20:55:21.092Z,59.20
2017-08-07T20:57:48.665Z,60.00
2017-08-07T21:00:16.218Z,59.60
2017-08-07T21:02:43.772Z,58.50
2017-08-07T21:05:11.363Z,59.00
2017-08-07T21:07:38.913Z,58.90
2017-08-07T21:10:06.487Z,59.20
2017-08-07T21:12:34.053Z,59.60
2017-08-07T21:15:01.608Z,59.90
2017-08-07T21:17:29.201Z,59.70
2017-08-07T21:19:56.760Z,59.80
2017-08-07T21:22:24.409Z,59.20
2017-08-07T21:24:51.957Z,59.80
2017-08-07T21:27:19.498Z,60.30
2017-08-07T21:29:47.058Z,59.90
2017-08-07T21:32:14.605Z,59.90
2017-08-07T21:34:42.960Z,60.80
2017-08-07T21:37:10.519Z,60.80
2017-08-07T21:39:38.072Z,61.20
2017-08-07T21:42:05.636Z,61.00
2017-08-07T21:44:33.197Z,61.00
2017-08-07T21:47:00.785Z,61.10
2017-08-07T21:49:28.350Z,61.40
2017-08-07T21:51:55.903Z,61.20
2017-08-07T21:54:23.481Z,61.90
2017-08-07T21:56:51.809Z,61.90
2017-08-07T21:59:19.431Z,61.90
2017-08-07T22:01:46.978Z,62.00
2017-08-07T22:04:14.528Z,62.70
2017-08-07T22:06:42.090Z,62.60
2017-08-07T22:09:09.890Z,62.50
2017-08-07T22:11:37.528Z,63.10
2017-08-07T22:14:05.081Z,63.60
2017-08-07T22:16:32.617Z,63.60
2017-08-07T22:19:00.209Z,63.90
2017-08-07T22:21:27.750Z,65.20
2017-08-07T22:23:55.326Z,65.40
2017-08-07T22:26:22.874Z,65.30
2017-08-07T22:28:50.424Z,65.30
2017-08-07T22:31:18.010Z,65.30
2017-08-07T22:33:45.564Z,65.40
2017-08-07T22:36:13.129Z,65.30
2017-08-07T22:38:40.689Z,65.10
2017-08-07T22:41:08.249Z,64.90
2017-08-07T22:43:35.824Z,66.10
2017-08-07T22:46:03.370Z,66.10
2017-08-07T22:48:30.957Z,65.80
2017-08-07T22:50:59.267Z,67.10
2017-08-07T22:53:26.819Z,66.40
2017-08-07T22:55:55.146Z,66.40
2017-08-07T22:58:22.708Z,66.40
2017-08-07T23:00:50.282Z,65.80
2017-08-07T23:03:17.857Z,66.80
2017-08-07T23:05:45.399Z,66.80
2017-08-07T23:08:13.086Z,67.00
2017-08-07T23:10:40.653Z,67.30
2017-08-07T23:13:08.246Z,67.40
2017-08-07T23:15:35.797Z,67.50
2017-08-07T23:18:04.134Z,67.50
2017-08-07T23:20:31.704Z,67.50
2017-08-07T23:22:59.239Z,67.90
2017-08-07T23:25:26.837Z,68.00
2017-08-07T23:27:54.376Z,68.20
2017-08-07T23:30:21.916Z,68.30
2017-08-07T23:32:49.499Z,68.50
2017-08-07T23:35:17.046Z,68.80
2017-08-07T23:37:44.636Z,69.10
2017-08-07T23:40:12.175Z,68.90
2017-08-07T23:42:39.719Z,68.90
2017-08-07T23:45:07.297Z,68.90
2017-08-07T23:47:34.858Z,69.10
2017-08-07T23:50:02.437Z,69.10
2017-08-07T23:52:29.989Z,69.10
2017-08-07T23:54:57.550Z,69.10
2017-08-07T23:57:25.130Z,69.30
2017-08-07T23:59:52.696Z,69.50
